createdAt,value
2022-10-18T00:00:15.837Z,21.00
2022-10-18T00:01:15.836Z,18.40
2022-10-18T00:02:15.971Z,19.90
2022-10-18T00:03:15.816Z,19.90
2022-10-18T00:04:15.809Z,20.20
2022-10-18T00:05:15.843Z,19.50
2022-10-18T00:06:15.796Z,21.10
2022-10-18T00:07:15.799Z,17.20
2022-10-18T00:08:15.806Z,18.90
2022-10-18T00:09:15.773Z,19.50
2022-10-18T00:10:15.766Z,19.30
2022-10-18T00:11:15.750Z,18.20
2022-10-18T00:12:15.740Z,18.00
2022-10-18T00:13:15.728Z,21.30
2022-10-18T00:14:15.872Z,18.70
2022-10-18T00:15:15.721Z,19.70
2022-10-18T00:16:15.710Z,16.50
2022-10-18T00:17:16.146Z,15.70
2022-10-18T00:18:15.681Z,17.00
2022-10-18T00:19:15.703Z,19.40
2022-10-18T00:20:15.672Z,18.00
2022-10-18T00:21:15.673Z,17.40
2022-10-18T00:22:15.660Z,18.70
2022-10-18T00:23:15.650Z,22.50
2022-10-18T00:24:15.642Z,18.10
2022-10-18T00:25:15.659Z,20.50
2022-10-18T00:26:15.626Z,21.00
2022-10-18T00:27:15.614Z,19.10
2022-10-18T00:28:15.593Z,18.60
2022-10-18T00:29:15.591Z,22.50
2022-10-18T00:30:15.584Z,19.70
2022-10-18T00:31:15.606Z,20.00
2022-10-18T00:32:15.577Z,20.50
2022-10-18T00:33:15.565Z,21.60
2022-10-18T00:34:15.564Z,21.60
2022-10-18T00:35:15.546Z,19.60
2022-10-18T00:36:15.554Z,16.50
2022-10-18T00:37:15.578Z,21.90
2022-10-18T00:38:15.516Z,19.80
2022-10-18T00:39:15.514Z,20.40
2022-10-18T00:40:15.512Z,17.70
2022-10-18T00:41:15.493Z,18.70
2022-10-18T00:42:15.485Z,20.10
2022-10-18T00:43:15.510Z,20.10
2022-10-18T00:44:15.477Z,24.30
2022-10-18T00:45:15.472Z,22.50
2022-10-18T00:46:15.460Z,18.70
2022-10-18T00:47:15.455Z,21.00
2022-10-18T00:48:15.455Z,21.50
2022-10-18T00:49:15.479Z,19.70
2022-10-18T00:50:15.432Z,17.30
2022-10-18T00:51:15.417Z,17.50
2022-10-18T00:52:15.423Z,20.80
2022-10-18T00:53:15.411Z,22.80
2022-10-18T00:54:15.414Z,20.20
2022-10-18T00:55:15.398Z,18.60
2022-10-18T00:56:15.378Z,21.60
2022-10-18T00:57:15.374Z,22.80
2022-10-18T00:58:15.367Z,25.00
2022-10-18T00:59:15.356Z,21.00
2022-10-18T01:00:15.371Z,23.70
2022-10-18T01:01:15.371Z,21.40
2022-10-18T01:02:15.329Z,19.40
2022-10-18T01:03:15.327Z,23.90
2022-10-18T01:04:15.470Z,24.00
2022-10-18T01:05:15.327Z,20.80
2022-10-18T01:06:15.482Z,21.40
2022-10-18T01:07:15.321Z,19.20
2022-10-18T01:08:15.313Z,19.20
2022-10-18T01:09:15.266Z,22.10
2022-10-18T01:10:15.256Z,18.30
2022-10-18T01:11:15.410Z,19.50
2022-10-18T01:12:15.239Z,20.70
2022-10-18T01:13:15.266Z,21.10
2022-10-18T01:14:15.226Z,21.80
2022-10-18T01:15:15.226Z,21.50
2022-10-18T01:16:15.218Z,25.10
2022-10-18T01:17:15.213Z,27.80
2022-10-18T01:18:15.289Z,21.00
2022-10-18T01:19:15.194Z,27.90
2022-10-18T01:20:15.184Z,35.80
2022-10-18T01:21:15.181Z,26.60
2022-10-18T01:22:15.202Z,25.90
2022-10-18T01:23:15.151Z,25.60
2022-10-18T01:24:15.157Z,24.00
2022-10-18T01:25:15.141Z,36.30
2022-10-18T01:26:15.125Z,25.60
2022-10-18T01:27:15.115Z,31.80
2022-10-18T01:28:15.117Z,34.70
2022-10-18T01:29:15.162Z,31.60
2022-10-18T01:30:15.097Z,32.70
2022-10-18T01:31:15.098Z,34.50
2022-10-18T01:32:15.106Z,31.60
2022-10-18T01:33:15.072Z,31.60
2022-10-18T01:34:15.066Z,30.80
2022-10-18T01:35:15.076Z,31.20
2022-10-18T01:36:15.062Z,30.50
2022-10-18T01:37:15.035Z,28.80
2022-10-18T01:38:15.017Z,27.70
2022-10-18T01:39:15.025Z,27.10
2022-10-18T01:40:15.009Z,23.60
2022-10-18T01:41:15.943Z,27.20
2022-10-18T01:42:14.994Z,28.80
2022-10-18T01:43:14.993Z,22.50
2022-10-18T01:44:14.978Z,23.80
2022-10-18T01:45:14.975Z,25.50
2022-10-18T01:46:14.967Z,25.00
2022-10-18T01:47:14.967Z,26.70
2022-10-18T01:48:14.938Z,25.10
2022-10-18T01:49:14.934Z,27.50
2022-10-18T01:50:14.921Z,26.80
2022-10-18T01:51:14.925Z,23.30
2022-10-18T01:52:14.919Z,27.00
2022-10-18T01:53:14.925Z,24.60
2022-10-18T01:54:14.932Z,26.20
2022-10-18T01:55:14.887Z,22.90
2022-10-18T01:56:14.884Z,27.30
2022-10-18T01:57:14.882Z,27.40
2022-10-18T01:58:14.858Z,30.60
2022-10-18T01:59:14.879Z,33.90
2022-10-18T02:00:14.841Z,33.20
2022-10-18T02:01:14.866Z,30.60
2022-10-18T02:02:14.854Z,38.00
2022-10-18T02:03:14.826Z,33.90
2022-10-18T02:04:14.995Z,38.50
2022-10-18T02:05:14.827Z,75.90
2022-10-18T02:06:14.792Z,237.00
2022-10-18T02:07:14.786Z,207.10
2022-10-18T02:08:22.933Z,211.70
2022-10-18T02:09:15.770Z,150.90
2022-10-18T02:11:14.763Z,32.80
2022-10-18T02:12:14.747Z,37.30
2022-10-18T02:13:14.766Z,37.30
2022-10-18T02:14:14.817Z,34.20
2022-10-18T02:15:14.731Z,35.10
2022-10-18T02:16:14.773Z,35.40
2022-10-18T02:17:14.709Z,36.70
2022-10-18T02:18:14.696Z,36.70
2022-10-18T02:19:14.872Z,118.00
2022-10-18T02:20:14.674Z,86.10
2022-10-18T02:21:14.695Z,38.20
2022-10-18T02:22:14.675Z,44.80
2022-10-18T02:23:14.669Z,52.60
2022-10-18T02:24:14.714Z,39.80
2022-10-18T02:25:14.630Z,41.60
2022-10-18T02:26:14.649Z,51.90
2022-10-18T02:27:14.656Z,37.70
2022-10-18T02:28:14.626Z,39.80
2022-10-18T02:29:14.705Z,189.00
2022-10-18T02:30:14.597Z,97.40
2022-10-18T02:31:14.580Z,66.30
2022-10-18T02:32:14.577Z,49.10
2022-10-18T02:33:14.589Z,110.00
2022-10-18T02:34:14.597Z,49.30
2022-10-18T02:35:14.556Z,47.10
2022-10-18T02:36:14.541Z,53.40
2022-10-18T02:37:14.608Z,36.90
2022-10-18T02:38:14.521Z,44.60
2022-10-18T02:39:14.686Z,40.60
2022-10-18T02:40:14.525Z,38.90
2022-10-18T02:41:14.497Z,35.30
2022-10-18T02:42:14.514Z,32.40
2022-10-18T02:43:14.491Z,35.70
2022-10-18T02:44:14.489Z,32.70
2022-10-18T02:45:14.479Z,34.30
2022-10-18T02:46:14.522Z,37.80
2022-10-18T02:47:14.455Z,38.90
2022-10-18T02:48:14.470Z,40.80
2022-10-18T02:49:14.459Z,43.40
2022-10-18T02:50:14.426Z,49.70
2022-10-18T02:51:14.402Z,48.90
2022-10-18T02:52:14.400Z,43.30
2022-10-18T02:53:14.392Z,44.00
2022-10-18T02:54:14.386Z,43.90
2022-10-18T02:55:14.435Z,40.80
2022-10-18T02:56:14.375Z,44.50
2022-10-18T02:57:14.375Z,41.00
2022-10-18T02:58:14.354Z,37.90
2022-10-18T02:59:14.347Z,32.70
2022-10-18T03:00:14.358Z,40.10
2022-10-18T03:01:14.375Z,32.00
2022-10-18T03:02:14.332Z,29.60
2022-10-18T03:03:14.317Z,27.10
2022-10-18T03:04:14.437Z,26.50
2022-10-18T03:05:14.302Z,24.30
2022-10-18T03:06:14.316Z,24.70
2022-10-18T03:07:14.286Z,24.70
2022-10-18T03:08:14.282Z,20.40
2022-10-18T03:09:14.257Z,22.80
2022-10-18T03:10:14.250Z,22.50
2022-10-18T03:11:14.271Z,19.90
2022-10-18T03:12:14.235Z,22.20
2022-10-18T03:13:14.242Z,21.10
2022-10-18T03:14:14.227Z,22.20
2022-10-18T03:15:14.219Z,23.20
2022-10-18T03:16:14.245Z,20.70
2022-10-18T03:17:14.232Z,20.10
2022-10-18T03:18:14.204Z,17.60
2022-10-18T03:19:14.189Z,21.40
2022-10-18T03:20:14.188Z,19.10
2022-10-18T03:21:14.168Z,18.60
2022-10-18T03:22:14.160Z,22.30
2022-10-18T03:23:14.170Z,18.50
2022-10-18T03:24:14.152Z,26.40
2022-10-18T03:25:14.131Z,26.00
2022-10-18T03:26:14.149Z,30.90
2022-10-18T03:27:14.123Z,30.60
2022-10-18T03:28:14.111Z,23.20
2022-10-18T03:29:14.131Z,23.60
2022-10-18T03:30:14.105Z,19.20
2022-10-18T03:31:14.090Z,18.70
2022-10-18T03:32:14.084Z,16.20
2022-10-18T03:33:14.074Z,13.10
2022-10-18T03:34:14.075Z,20.40
2022-10-18T03:35:14.074Z,31.30
2022-10-18T03:36:14.046Z,31.60
2022-10-18T03:37:14.027Z,33.30
2022-10-18T03:38:14.027Z,27.10
2022-10-18T03:39:14.016Z,22.20
2022-10-18T03:40:14.025Z,20.10
2022-10-18T03:41:14.030Z,20.20
2022-10-18T03:42:13.996Z,17.50
2022-10-18T03:43:13.990Z,48.30
2022-10-18T03:44:13.981Z,22.80
2022-10-18T03:45:13.966Z,159.70
2022-10-18T03:46:13.988Z,229.70
2022-10-18T03:47:13.953Z,32.10
2022-10-18T03:48:13.941Z,55.00
2022-10-18T03:49:13.932Z,42.50
2022-10-18T03:50:13.934Z,49.00
2022-10-18T03:51:13.920Z,36.20
2022-10-18T03:52:13.937Z,69.20
2022-10-18T03:53:13.898Z,185.90
2022-10-18T03:54:13.900Z,42.80
2022-10-18T03:55:13.888Z,29.30
2022-10-18T03:56:13.895Z,46.00
2022-10-18T03:57:13.868Z,229.60
2022-10-18T03:58:13.878Z,127.00
2022-10-18T03:59:13.849Z,128.70
2022-10-18T04:00:13.844Z,141.30
2022-10-18T04:01:13.869Z,59.00
2022-10-18T04:02:13.834Z,33.30
2022-10-18T04:03:13.840Z,29.70
2022-10-18T04:04:13.805Z,25.70
2022-10-18T04:05:13.814Z,26.60
2022-10-18T04:06:13.802Z,24.40
2022-10-18T04:07:13.778Z,25.20
2022-10-18T04:08:13.776Z,26.40
2022-10-18T04:09:13.790Z,28.60
2022-10-18T04:10:13.755Z,23.40
2022-10-18T04:11:13.753Z,27.30
2022-10-18T04:12:13.752Z,164.10
2022-10-18T04:13:13.739Z,60.60
2022-10-18T04:14:13.723Z,143.10
2022-10-18T04:15:13.739Z,243.80
2022-10-18T04:16:13.709Z,182.00
2022-10-18T04:17:13.692Z,306.80
2022-10-18T04:18:13.747Z,109.00
2022-10-18T04:19:13.678Z,317.10
2022-10-18T04:20:13.705Z,55.10
2022-10-18T04:21:13.667Z,104.60
2022-10-18T04:22:13.658Z,76.70
2022-10-18T04:23:13.642Z,38.00
2022-10-18T04:24:13.640Z,28.50
2022-10-18T04:25:13.649Z,29.50
2022-10-18T04:26:13.648Z,25.20
2022-10-18T04:27:13.617Z,22.80
2022-10-18T04:28:13.617Z,25.00
2022-10-18T04:29:13.619Z,24.70
2022-10-18T04:30:13.596Z,27.90
2022-10-18T04:31:19.559Z,25.80
2022-10-18T04:32:14.603Z,29.10
2022-10-18T04:33:13.570Z,27.10
2022-10-18T04:34:13.593Z,24.00
2022-10-18T04:35:13.551Z,21.30
2022-10-18T04:36:13.546Z,18.10
2022-10-18T04:37:13.537Z,17.00
2022-10-18T04:38:13.531Z,19.90
2022-10-18T04:39:13.515Z,19.90
2022-10-18T04:40:13.539Z,17.10
2022-10-18T04:41:13.513Z,17.20
2022-10-18T04:42:13.501Z,15.60
2022-10-18T04:43:13.485Z,14.40
2022-10-18T04:44:13.514Z,12.50
2022-10-18T04:45:13.470Z,13.20
2022-10-18T04:46:13.481Z,12.40
2022-10-18T04:47:13.449Z,12.30
2022-10-18T04:48:13.481Z,12.90
2022-10-18T04:49:13.454Z,13.00
2022-10-18T04:50:13.433Z,11.70
2022-10-18T04:51:13.431Z,11.60
2022-10-18T04:52:13.413Z,10.10
2022-10-18T04:53:13.462Z,24.90
2022-10-18T04:54:13.400Z,15.90
2022-10-18T04:55:13.398Z,14.00
2022-10-18T04:56:13.394Z,10.30
2022-10-18T04:57:13.398Z,12.00
2022-10-18T04:58:13.388Z,10.50
2022-10-18T04:59:13.358Z,8.00
2022-10-18T05:00:13.379Z,8.30
2022-10-18T05:01:13.359Z,7.00
2022-10-18T05:02:13.332Z,9.00
2022-10-18T05:03:13.321Z,7.00
2022-10-18T05:04:13.343Z,8.10
2022-10-18T05:05:14.243Z,11.30
2022-10-18T05:06:13.380Z,11.80
2022-10-18T05:07:13.303Z,9.10
2022-10-18T05:08:13.300Z,10.70
2022-10-18T05:09:13.274Z,10.60
2022-10-18T05:10:13.290Z,8.30
2022-10-18T05:11:13.291Z,8.60
2022-10-18T05:12:13.255Z,10.50
2022-10-18T05:13:13.236Z,9.80
2022-10-18T05:14:13.240Z,9.80
2022-10-18T05:15:13.227Z,10.80
2022-10-18T05:16:13.219Z,10.00
2022-10-18T05:17:13.228Z,16.10
2022-10-18T05:18:13.210Z,16.00
2022-10-18T05:19:13.189Z,22.10
2022-10-18T05:21:13.175Z,23.30
2022-10-18T05:22:13.183Z,23.00
2022-10-18T05:23:13.231Z,18.70
2022-10-18T05:24:13.191Z,21.00
2022-10-18T05:25:13.148Z,26.30
2022-10-18T05:26:13.151Z,35.40
2022-10-18T05:27:13.170Z,31.80
2022-10-18T05:28:38.205Z,27.80
2022-10-18T05:29:14.202Z,26.90
2022-10-18T05:30:13.116Z,27.80
2022-10-18T05:31:13.096Z,55.90
2022-10-18T05:32:13.095Z,63.20
2022-10-18T05:33:13.084Z,202.80
2022-10-18T05:34:13.083Z,139.20
2022-10-18T05:35:13.099Z,167.70
2022-10-18T05:36:13.080Z,168.30
2022-10-18T05:37:13.069Z,123.40
2022-10-18T05:38:13.047Z,97.10
2022-10-18T05:39:13.048Z,89.80
2022-10-18T05:40:13.045Z,76.90
2022-10-18T05:41:13.061Z,71.60
2022-10-18T05:42:13.011Z,64.00
2022-10-18T05:43:12.997Z,42.90
2022-10-18T05:44:13.036Z,51.40
2022-10-18T05:45:12.973Z,35.70
2022-10-18T05:46:15.349Z,30.50
2022-10-18T05:47:12.973Z,25.40
2022-10-18T05:48:12.994Z,20.30
2022-10-18T05:49:12.955Z,21.60
2022-10-18T05:50:12.940Z,22.10
2022-10-18T05:51:12.930Z,25.60
2022-10-18T05:52:12.962Z,24.60
2022-10-18T05:54:13.901Z,27.50
2022-10-18T05:55:12.892Z,24.60
2022-10-18T05:56:12.881Z,19.90
2022-10-18T05:57:12.880Z,23.30
2022-10-18T05:58:12.889Z,23.00
2022-10-18T05:59:12.879Z,26.80
2022-10-18T06:00:12.860Z,45.60
2022-10-18T06:01:12.846Z,31.40
2022-10-18T06:02:12.914Z,32.80
2022-10-18T06:03:12.825Z,41.20
2022-10-18T06:04:12.871Z,33.70
2022-10-18T06:05:12.816Z,40.30
2022-10-18T06:06:12.831Z,44.60
2022-10-18T06:07:12.823Z,50.50
2022-10-18T06:08:12.786Z,39.00
2022-10-18T06:09:12.760Z,32.90
2022-10-18T06:10:12.760Z,21.60
2022-10-18T06:11:12.759Z,25.40
2022-10-18T06:12:12.744Z,15.20
2022-10-18T06:13:12.764Z,13.70
2022-10-18T06:14:12.760Z,14.50
2022-10-18T06:15:12.735Z,12.90
2022-10-18T06:16:12.886Z,9.50
2022-10-18T06:17:12.716Z,13.70
2022-10-18T06:18:12.712Z,11.80
2022-10-18T06:19:12.711Z,9.00
2022-10-18T06:20:12.689Z,9.00
2022-10-18T06:21:12.690Z,9.30
2022-10-18T06:22:12.694Z,10.20
2022-10-18T06:23:12.661Z,7.30
2022-10-18T06:24:12.651Z,11.30
2022-10-18T06:25:12.646Z,85.90
2022-10-18T06:26:12.634Z,153.10
2022-10-18T06:27:12.631Z,352.30
2022-10-18T06:28:12.637Z,587.50
2022-10-18T06:29:12.658Z,488.80
2022-10-18T06:30:12.609Z,390.10
2022-10-18T06:31:12.599Z,341.70
2022-10-18T06:32:12.589Z,117.90
2022-10-18T06:33:14.270Z,168.70
2022-10-18T06:34:12.570Z,123.70
2022-10-18T06:35:12.578Z,71.20
2022-10-18T06:36:12.577Z,64.00
2022-10-18T06:37:12.542Z,86.30
2022-10-18T06:38:12.650Z,125.20
2022-10-18T06:39:12.530Z,79.20
2022-10-18T06:40:12.512Z,86.20
2022-10-18T06:41:12.503Z,53.60
2022-10-18T06:42:12.491Z,48.40
2022-10-18T06:43:20.638Z,78.70
2022-10-18T06:44:13.498Z,55.10
2022-10-18T06:45:12.479Z,53.40
2022-10-18T06:46:12.485Z,34.70
2022-10-18T06:47:12.471Z,40.10
2022-10-18T06:48:12.493Z,38.90
2022-10-18T06:49:14.098Z,29.40
2022-10-18T06:50:12.439Z,28.20
2022-10-18T06:51:12.451Z,25.00
2022-10-18T06:52:12.437Z,26.50
2022-10-18T06:53:12.406Z,22.30
2022-10-18T06:54:17.831Z,19.20
2022-10-18T06:55:13.401Z,19.60
2022-10-18T06:56:12.382Z,19.40
2022-10-18T06:57:12.409Z,18.50
2022-10-18T06:58:12.389Z,16.10
2022-10-18T06:59:12.360Z,13.50
2022-10-18T07:00:12.371Z,15.20
2022-10-18T07:01:12.443Z,15.30
2022-10-18T07:02:12.335Z,13.80
2022-10-18T07:03:12.346Z,14.30
2022-10-18T07:04:12.436Z,14.50
2022-10-18T07:05:12.322Z,14.90
2022-10-18T07:06:12.302Z,13.20
2022-10-18T07:07:12.321Z,13.90
2022-10-18T07:08:12.288Z,12.60
2022-10-18T07:09:12.294Z,12.60
2022-10-18T07:10:13.093Z,12.10
2022-10-18T07:11:12.267Z,11.60
2022-10-18T07:12:12.245Z,12.60
2022-10-18T07:13:31.338Z,15.00
2022-10-18T07:14:16.298Z,10.90
2022-10-18T07:15:12.249Z,12.80
2022-10-18T07:16:14.294Z,11.50
2022-10-18T07:17:13.315Z,13.40
2022-10-18T07:18:12.216Z,12.40
2022-10-18T07:19:12.216Z,12.40
2022-10-18T07:20:12.202Z,11.40
2022-10-18T07:21:12.172Z,11.30
2022-10-18T07:22:12.170Z,13.60
2022-10-18T07:23:12.160Z,12.40
2022-10-18T07:24:12.156Z,13.90
2022-10-18T07:25:12.140Z,13.00
2022-10-18T07:26:12.159Z,15.00
2022-10-18T07:27:12.142Z,13.90
2022-10-18T07:28:12.125Z,15.40
2022-10-18T07:29:12.116Z,15.10
2022-10-18T07:30:12.106Z,13.30
2022-10-18T07:31:12.101Z,13.90
2022-10-18T07:32:12.117Z,13.00
2022-10-18T07:33:12.081Z,13.00
2022-10-18T07:34:12.075Z,11.10
2022-10-18T07:36:12.049Z,26.40
2022-10-18T07:37:12.048Z,21.10
2022-10-18T07:38:12.053Z,18.60
2022-10-18T07:39:12.030Z,22.50
2022-10-18T07:40:12.021Z,27.60
2022-10-18T07:41:12.053Z,20.40
2022-10-18T07:42:12.003Z,19.20
2022-10-18T07:43:12.390Z,17.30
2022-10-18T07:44:12.009Z,18.70
2022-10-18T07:45:12.142Z,18.70
2022-10-18T07:46:11.974Z,17.70
2022-10-18T07:47:11.988Z,14.40
2022-10-18T07:48:11.954Z,15.30
2022-10-18T07:49:12.000Z,25.30
2022-10-18T07:50:11.947Z,22.50
2022-10-18T07:51:11.931Z,26.30
2022-10-18T07:52:11.924Z,27.90
2022-10-18T07:53:11.913Z,25.10
2022-10-18T07:54:11.957Z,20.40
2022-10-18T07:55:11.911Z,29.00
2022-10-18T07:56:11.917Z,26.70
2022-10-18T07:57:11.896Z,26.50
2022-10-18T07:58:12.748Z,27.80
2022-10-18T07:59:11.866Z,32.20
2022-10-18T08:00:11.878Z,18.50
2022-10-18T08:01:11.886Z,29.30
2022-10-18T08:02:11.842Z,26.60
2022-10-18T08:03:11.836Z,22.60
2022-10-18T08:04:16.230Z,24.50
2022-10-18T08:05:11.826Z,37.50
2022-10-18T08:06:11.836Z,27.30
2022-10-18T08:07:11.842Z,34.30
2022-10-18T08:08:12.035Z,30.90
2022-10-18T08:09:11.836Z,35.20
2022-10-18T08:10:11.796Z,30.30
2022-10-18T08:11:11.784Z,26.30
2022-10-18T08:12:11.776Z,26.70
2022-10-18T08:13:11.791Z,24.60
2022-10-18T08:14:11.773Z,20.00
2022-10-18T08:15:11.746Z,16.70
2022-10-18T08:16:11.730Z,19.50
2022-10-18T08:17:11.728Z,26.30
2022-10-18T08:18:11.727Z,23.50
2022-10-18T08:19:11.727Z,16.60
2022-10-18T08:20:26.150Z,21.00
2022-10-18T08:21:12.714Z,22.30
2022-10-18T08:22:11.695Z,17.60
2022-10-18T08:23:11.676Z,18.10
2022-10-18T08:24:11.698Z,20.00
2022-10-18T08:25:11.686Z,15.60
2022-10-18T08:26:11.655Z,17.30
2022-10-18T08:27:11.651Z,16.30
2022-10-18T08:28:11.635Z,15.50
2022-10-18T08:29:23.016Z,16.90
2022-10-18T08:30:12.636Z,14.80
2022-10-18T08:31:11.608Z,11.90
2022-10-18T08:32:11.648Z,11.90
2022-10-18T08:33:11.587Z,11.90
2022-10-18T08:34:14.794Z,12.20
2022-10-18T08:35:12.581Z,14.50
2022-10-18T08:36:11.584Z,16.40
2022-10-18T08:37:11.555Z,17.00
2022-10-18T08:38:16.384Z,15.50
2022-10-18T08:39:12.557Z,13.40
2022-10-18T08:40:11.579Z,15.80
2022-10-18T08:41:11.529Z,17.50
2022-10-18T08:42:11.532Z,15.80
2022-10-18T08:43:11.510Z,12.20
2022-10-18T08:44:11.508Z,13.40
2022-10-18T08:45:17.766Z,13.60
2022-10-18T08:46:12.493Z,11.90
2022-10-18T08:47:11.507Z,13.90
2022-10-18T08:48:11.484Z,12.70
2022-10-18T08:49:11.453Z,12.40
2022-10-18T08:50:11.453Z,15.60
2022-10-18T08:51:11.439Z,12.80
2022-10-18T08:52:11.452Z,13.50
2022-10-18T08:53:11.425Z,13.20
2022-10-18T08:54:11.409Z,11.80
2022-10-18T08:55:11.418Z,12.80
2022-10-18T08:56:11.408Z,16.80
2022-10-18T08:57:11.395Z,15.10
2022-10-18T08:58:11.497Z,14.50
2022-10-18T08:59:11.369Z,15.60
2022-10-18T09:00:11.456Z,16.10
2022-10-18T09:01:11.365Z,16.60
2022-10-18T09:02:11.440Z,13.10
2022-10-18T09:03:11.381Z,13.70
2022-10-18T09:04:11.347Z,16.10
2022-10-18T09:05:13.212Z,12.70
2022-10-18T09:06:11.316Z,13.40
2022-10-18T09:07:11.312Z,12.20
2022-10-18T09:08:11.297Z,14.50
2022-10-18T09:09:11.337Z,9.90
2022-10-18T09:10:11.355Z,12.10
2022-10-18T09:11:11.266Z,13.00
2022-10-18T09:12:11.260Z,15.30
2022-10-18T09:13:11.248Z,16.90
2022-10-18T09:14:11.245Z,17.20
2022-10-18T09:15:11.236Z,17.20
2022-10-18T09:16:11.253Z,15.60
2022-10-18T09:17:15.831Z,14.30
2022-10-18T09:18:12.221Z,22.00
2022-10-18T09:19:11.213Z,26.60
2022-10-18T09:20:11.205Z,22.80
2022-10-18T09:21:11.186Z,24.90
2022-10-18T09:22:11.208Z,16.60
2022-10-18T09:23:11.208Z,13.20
2022-10-18T09:24:11.166Z,12.90
2022-10-18T09:25:11.172Z,14.30
2022-10-18T09:26:11.136Z,14.00
2022-10-18T09:27:11.131Z,14.60
2022-10-18T09:28:11.140Z,16.80
2022-10-18T09:29:11.268Z,12.30
2022-10-18T09:30:11.103Z,13.40
2022-10-18T09:31:11.096Z,13.10
2022-10-18T09:32:11.094Z,14.40
2022-10-18T09:33:11.117Z,16.30
2022-10-18T09:34:11.117Z,17.90
2022-10-18T09:35:11.078Z,15.30
2022-10-18T09:36:11.077Z,14.20
2022-10-18T09:37:11.055Z,18.70
2022-10-18T09:38:11.045Z,15.30
2022-10-18T09:39:11.051Z,15.00
2022-10-18T09:40:14.006Z,13.30
2022-10-18T09:41:12.014Z,16.40
2022-10-18T09:42:11.015Z,16.30
2022-10-18T09:43:11.017Z,17.40
2022-10-18T09:44:10.994Z,19.00
2022-10-18T09:45:10.997Z,17.50
2022-10-18T09:46:11.013Z,21.20
2022-10-18T09:47:14.601Z,19.40
2022-10-18T09:48:11.958Z,18.40
2022-10-18T09:49:13.030Z,17.70
2022-10-18T09:50:11.998Z,17.40
2022-10-18T09:51:10.943Z,15.00
2022-10-18T09:52:10.971Z,14.50
2022-10-18T09:53:10.932Z,13.80
2022-10-18T09:54:10.910Z,13.30
2022-10-18T09:55:10.911Z,12.90
2022-10-18T09:56:10.906Z,14.40
2022-10-18T09:57:10.889Z,13.70
2022-10-18T09:58:11.113Z,13.00
2022-10-18T09:59:10.865Z,12.90
2022-10-18T10:00:10.852Z,13.50
2022-10-18T10:01:10.865Z,13.60
2022-10-18T10:02:10.922Z,11.80
2022-10-18T10:03:10.862Z,13.10
2022-10-18T10:04:10.856Z,17.10
2022-10-18T10:06:10.842Z,15.70
2022-10-18T10:07:10.831Z,13.90
2022-10-18T10:08:10.792Z,10.30
2022-10-18T10:09:10.823Z,10.60
2022-10-18T10:10:10.801Z,13.10
2022-10-18T10:11:10.765Z,13.10
2022-10-18T10:12:10.785Z,10.90
2022-10-18T10:13:10.756Z,13.60
2022-10-18T10:14:10.805Z,12.30
2022-10-18T10:15:10.740Z,11.60
2022-10-18T10:16:10.755Z,11.00
2022-10-18T10:17:10.731Z,10.00
2022-10-18T10:18:10.713Z,11.70
2022-10-18T10:19:10.705Z,9.80
2022-10-18T10:20:10.701Z,8.70
2022-10-18T10:21:10.836Z,8.50
2022-10-18T10:22:10.697Z,9.80
2022-10-18T10:23:10.756Z,8.10
2022-10-18T10:24:10.665Z,8.80
2022-10-18T10:25:10.662Z,8.90
2022-10-18T10:26:10.646Z,8.60
2022-10-18T10:27:10.644Z,8.90
2022-10-18T10:28:10.883Z,10.00
2022-10-18T10:29:17.422Z,9.20
2022-10-18T10:30:11.640Z,9.90
2022-10-18T10:31:10.609Z,10.10
2022-10-18T10:32:10.605Z,9.60
2022-10-18T10:33:10.596Z,10.90
2022-10-18T10:34:10.605Z,9.20
2022-10-18T10:35:18.306Z,9.10
2022-10-18T10:36:11.571Z,9.70
2022-10-18T10:37:10.566Z,9.90
2022-10-18T10:38:10.567Z,8.90
2022-10-18T10:39:10.531Z,8.90
2022-10-18T10:40:19.360Z,9.50
2022-10-18T10:41:11.528Z,8.80
2022-10-18T10:42:11.511Z,9.70
2022-10-18T10:43:19.610Z,9.20
2022-10-18T10:44:11.550Z,10.80
2022-10-18T10:45:10.888Z,11.10
2022-10-18T10:46:10.488Z,9.30
2022-10-18T10:47:10.480Z,9.10
2022-10-18T10:48:10.517Z,9.90
2022-10-18T10:50:11.485Z,10.40
2022-10-18T10:51:10.455Z,9.60
2022-10-18T10:52:26.369Z,9.10
2022-10-18T10:53:11.442Z,10.00
2022-10-18T10:54:10.472Z,10.70
2022-10-18T10:55:30.844Z,9.20
2022-10-18T10:56:15.799Z,10.60
2022-10-18T10:57:10.398Z,8.60
2022-10-18T10:58:10.389Z,10.10
2022-10-18T10:59:10.458Z,10.30
2022-10-18T11:00:10.392Z,11.10
2022-10-18T11:01:11.376Z,8.50
2022-10-18T11:02:10.372Z,9.90
2022-10-18T11:03:27.389Z,8.80
2022-10-18T11:04:11.566Z,6.80
2022-10-18T11:05:10.346Z,7.70
2022-10-18T11:06:10.335Z,8.90
2022-10-18T11:07:10.332Z,7.50
2022-10-18T11:08:10.361Z,7.60
2022-10-18T11:09:10.301Z,7.80
2022-10-18T11:10:10.314Z,8.90
2022-10-18T11:11:10.285Z,9.30
2022-10-18T11:12:10.285Z,7.60
2022-10-18T11:13:10.278Z,7.90
2022-10-18T11:14:26.888Z,9.20
2022-10-18T11:15:11.279Z,8.90
2022-10-18T11:16:10.248Z,8.60
2022-10-18T11:17:10.248Z,8.00
2022-10-18T11:18:10.242Z,8.60
2022-10-18T11:19:10.229Z,7.70
2022-10-18T11:20:10.227Z,8.70
2022-10-18T11:21:10.245Z,7.80
2022-10-18T11:22:10.209Z,4.80
2022-10-18T11:23:10.200Z,5.20
2022-10-18T11:24:10.874Z,4.90
2022-10-18T11:25:10.173Z,4.40
2022-10-18T11:26:10.175Z,3.70
2022-10-18T11:27:10.184Z,3.50
2022-10-18T11:28:10.152Z,3.40
2022-10-18T11:29:10.139Z,3.70
2022-10-18T11:30:10.148Z,3.60
2022-10-18T11:31:10.128Z,2.90
2022-10-18T11:32:10.124Z,3.80
2022-10-18T11:33:10.167Z,3.40
2022-10-18T11:34:11.202Z,3.40
2022-10-18T11:35:10.710Z,2.90
2022-10-18T11:36:10.114Z,3.90
2022-10-18T11:37:27.071Z,4.90
2022-10-18T11:38:11.098Z,3.60
2022-10-18T11:39:10.068Z,3.80
2022-10-18T11:40:11.244Z,3.30
2022-10-18T11:41:10.040Z,4.10
2022-10-18T11:42:10.162Z,2.90
2022-10-18T11:43:10.044Z,4.30
2022-10-18T11:44:10.031Z,4.10
2022-10-18T11:45:10.100Z,5.80
2022-10-18T11:46:10.446Z,6.20
2022-10-18T11:47:10.027Z,6.70
2022-10-18T11:48:09.990Z,6.40
2022-10-18T11:49:10.887Z,4.70
2022-10-18T11:50:09.998Z,4.20
2022-10-18T11:51:10.821Z,4.70
2022-10-18T11:52:10.069Z,4.40
2022-10-18T11:53:09.984Z,4.40
2022-10-18T11:54:10.000Z,5.90
2022-10-18T11:55:09.940Z,5.20
2022-10-18T11:56:09.931Z,5.10
2022-10-18T11:57:09.931Z,4.60
2022-10-18T11:58:09.915Z,4.30
2022-10-18T11:59:09.903Z,3.90
2022-10-18T12:00:10.862Z,4.50
2022-10-18T12:01:09.890Z,4.80
2022-10-18T12:02:10.093Z,4.60
2022-10-18T12:03:10.027Z,5.00
2022-10-18T12:04:09.873Z,3.90
2022-10-18T12:05:23.245Z,4.60
2022-10-18T12:06:11.229Z,4.10
2022-10-18T12:07:09.856Z,4.70
2022-10-18T12:08:09.841Z,4.60
2022-10-18T12:09:10.035Z,6.70
2022-10-18T12:10:10.211Z,5.70
2022-10-18T12:11:09.816Z,5.40
2022-10-18T12:12:09.809Z,5.80
2022-10-18T12:13:09.801Z,5.00
2022-10-18T12:14:10.154Z,4.90
2022-10-18T12:15:09.805Z,6.90
2022-10-18T12:16:09.778Z,6.60
2022-10-18T12:18:10.774Z,6.20
2022-10-18T12:19:09.761Z,5.20
2022-10-18T12:20:09.796Z,5.50
2022-10-18T12:21:09.910Z,5.40
2022-10-18T12:22:09.754Z,5.90
2022-10-18T12:23:09.730Z,5.10
2022-10-18T12:24:09.703Z,6.00
2022-10-18T12:25:09.689Z,5.00
2022-10-18T12:26:09.732Z,6.70
2022-10-18T12:27:09.988Z,5.90
2022-10-18T12:28:09.674Z,5.90
2022-10-18T12:29:09.682Z,6.00
2022-10-18T12:30:09.758Z,6.10
2022-10-18T12:31:09.667Z,5.60
2022-10-18T12:32:09.650Z,5.50
2022-10-18T12:33:27.343Z,5.90
2022-10-18T12:34:10.634Z,5.40
2022-10-18T12:35:09.675Z,5.60
2022-10-18T12:36:09.597Z,4.60
2022-10-18T12:37:09.731Z,4.50
2022-10-18T12:38:09.671Z,5.50
2022-10-18T12:39:09.761Z,6.40
2022-10-18T12:40:12.492Z,5.50
2022-10-18T12:41:09.651Z,5.90
2022-10-18T12:42:09.555Z,6.50
2022-10-18T12:43:09.552Z,5.90
2022-10-18T12:44:09.540Z,7.10
2022-10-18T12:45:09.548Z,5.70
2022-10-18T12:46:13.532Z,5.50
2022-10-18T12:47:09.514Z,5.40
2022-10-18T12:48:09.509Z,5.40
2022-10-18T12:49:09.497Z,5.60
2022-10-18T12:50:09.520Z,6.40
2022-10-18T12:51:09.534Z,5.10
2022-10-18T12:52:09.687Z,4.30
2022-10-18T12:53:09.465Z,4.70
2022-10-18T12:54:09.615Z,4.30
2022-10-18T12:55:12.776Z,4.80
2022-10-18T12:56:10.465Z,4.40
2022-10-18T12:57:09.428Z,5.10
2022-10-18T12:58:09.475Z,4.70
2022-10-18T13:02:02.540Z,4.60
2022-10-18T13:03:02.425Z,4.70
2022-10-18T13:04:02.430Z,4.80
2022-10-18T13:05:02.622Z,5.00
2022-10-18T13:06:06.419Z,5.50